createdAt,value
2023-01-25T00:01:45.426Z,18.11
2023-01-25T00:04:18.795Z,18.09
2023-01-25T00:06:52.474Z,18.09
2023-01-25T00:09:26.943Z,18.05
2023-01-25T00:12:00.157Z,18.08
2023-01-25T00:14:33.332Z,18.04
2023-01-25T00:17:06.876Z,18.01
2023-01-25T00:19:40.097Z,18.02
2023-01-25T00:22:13.388Z,18.06
2023-01-25T00:24:46.583Z,18.03
2023-01-25T00:27:19.800Z,18.08
2023-01-25T00:29:53.400Z,18.06
2023-01-25T00:32:49.621Z,18.04
2023-01-25T00:35:23.950Z,18.03
2023-01-25T00:37:57.827Z,18.06
2023-01-25T00:40:31.304Z,18.02
2023-01-25T00:43:04.575Z,17.97
2023-01-25T00:45:37.897Z,18.00
2023-01-25T00:48:11.767Z,17.97
2023-01-25T00:50:45.064Z,17.96
2023-01-25T00:53:18.339Z,18.00
2023-01-25T00:55:56.882Z,17.98
2023-01-25T00:58:30.426Z,18.01
2023-01-25T01:01:04.218Z,18.04
2023-01-25T01:03:37.610Z,18.01
2023-01-25T01:06:13.501Z,17.96
2023-01-25T01:08:46.911Z,18.00
2023-01-25T01:11:20.199Z,17.98
2023-01-25T01:13:53.398Z,17.91
2023-01-25T01:16:27.314Z,17.90
2023-01-25T01:19:00.585Z,17.91
2023-01-25T01:21:33.878Z,17.85
2023-01-25T01:24:08.047Z,17.87
2023-01-25T01:26:41.388Z,17.91
2023-01-25T01:29:15.054Z,17.87
2023-01-25T01:31:51.187Z,17.82
2023-01-25T01:34:24.767Z,17.92
2023-01-25T01:36:58.008Z,17.93
2023-01-25T01:39:31.337Z,17.89
2023-01-25T01:42:04.751Z,17.90
2023-01-25T01:44:52.899Z,17.91
2023-01-25T01:47:32.572Z,17.90
2023-01-25T01:50:18.076Z,17.89
2023-01-25T01:52:51.786Z,17.84
2023-01-25T01:55:25.592Z,17.82
2023-01-25T01:58:03.420Z,17.85
2023-01-25T02:00:40.087Z,17.81
2023-01-25T02:03:14.833Z,17.77
2023-01-25T02:05:58.193Z,17.80
2023-01-25T02:08:36.636Z,17.83
2023-01-25T02:11:11.329Z,17.82
2023-01-25T02:13:44.972Z,17.81
2023-01-25T02:16:22.899Z,17.78
2023-01-25T02:18:57.966Z,17.76
2023-01-25T02:21:37.734Z,17.77
2023-01-25T02:24:18.543Z,17.72
2023-01-25T02:26:52.119Z,17.71
2023-01-25T02:29:26.066Z,17.75
2023-01-25T02:32:07.268Z,17.76
2023-01-25T02:34:40.521Z,17.74
2023-01-25T02:37:16.942Z,17.67
2023-01-25T02:39:50.382Z,17.71
2023-01-25T02:42:23.621Z,17.77
2023-01-25T02:44:56.888Z,17.72
2023-01-25T02:47:30.211Z,17.65
2023-01-25T02:50:03.605Z,17.62
2023-01-25T02:52:36.879Z,17.66
2023-01-25T02:55:12.342Z,17.64
2023-01-25T02:57:45.616Z,17.70
2023-01-25T03:00:19.979Z,17.67
2023-01-25T03:02:53.249Z,17.64
2023-01-25T03:05:26.989Z,17.62
2023-01-25T03:08:00.170Z,17.62
2023-01-25T03:10:33.404Z,17.60
2023-01-25T03:13:06.696Z,17.62
2023-01-25T03:15:39.937Z,17.57
2023-01-25T03:18:13.145Z,17.54
2023-01-25T03:20:46.378Z,17.57
2023-01-25T03:23:19.714Z,17.57
2023-01-25T03:25:54.702Z,17.59
2023-01-25T03:28:28.209Z,17.53
2023-01-25T03:31:01.528Z,17.51
2023-01-25T03:33:34.879Z,17.51
2023-01-25T03:36:10.045Z,17.53
2023-01-25T03:38:43.363Z,17.55
2023-01-25T03:41:16.600Z,17.51
2023-01-25T03:43:49.810Z,17.46
2023-01-25T03:46:23.010Z,17.43
2023-01-25T03:48:56.302Z,17.44
2023-01-25T03:51:29.557Z,17.36
2023-01-25T03:54:03.378Z,17.38
2023-01-25T03:56:36.692Z,17.42
2023-01-25T03:59:11.170Z,17.43
2023-01-25T04:01:44.438Z,17.43
2023-01-25T04:04:17.688Z,17.41
2023-01-25T04:06:50.958Z,17.38
2023-01-25T04:09:24.234Z,17.34
2023-01-25T04:11:57.460Z,17.34
2023-01-25T04:14:43.722Z,17.33
2023-01-25T04:17:17.828Z,17.31
2023-01-25T04:19:51.366Z,17.34
2023-01-25T04:22:24.577Z,17.36
2023-01-25T04:24:57.837Z,17.37
2023-01-25T04:27:31.270Z,17.26
2023-01-25T04:30:04.902Z,17.22
2023-01-25T04:32:40.448Z,17.17
2023-01-25T04:35:14.232Z,17.21
2023-01-25T04:37:53.415Z,17.11
2023-01-25T04:40:27.153Z,17.11
2023-01-25T04:43:00.606Z,17.25
2023-01-25T04:45:35.814Z,17.32
2023-01-25T04:48:12.026Z,17.35
2023-01-25T04:50:46.905Z,17.35
2023-01-25T04:53:20.255Z,17.33
2023-01-25T04:55:53.712Z,17.32
2023-01-25T04:58:27.176Z,17.33
2023-01-25T05:01:05.482Z,17.30
2023-01-25T05:03:38.785Z,17.27
2023-01-25T05:06:12.452Z,17.29
2023-01-25T05:08:45.850Z,17.22
2023-01-25T05:11:19.091Z,17.26
2023-01-25T05:13:54.761Z,17.26
2023-01-25T05:16:28.082Z,17.23
2023-01-25T05:19:01.375Z,17.23
2023-01-25T05:21:52.357Z,17.19
2023-01-25T05:24:25.917Z,17.17
2023-01-25T05:27:03.839Z,17.19
2023-01-25T05:29:39.765Z,17.24
2023-01-25T05:32:15.595Z,17.16
2023-01-25T05:34:49.502Z,17.11
2023-01-25T05:37:23.739Z,17.11
2023-01-25T05:39:57.026Z,17.19
2023-01-25T05:42:30.385Z,17.13
2023-01-25T05:45:03.746Z,17.13
2023-01-25T05:47:37.096Z,17.21
2023-01-25T05:50:12.673Z,17.29
2023-01-25T05:52:48.266Z,17.30
2023-01-25T05:55:21.767Z,17.30
2023-01-25T05:57:57.927Z,17.18
2023-01-25T06:00:31.348Z,17.20
2023-01-25T06:03:05.808Z,17.15
2023-01-25T06:05:39.163Z,17.11
2023-01-25T06:08:12.437Z,17.11
2023-01-25T06:10:45.678Z,17.12
2023-01-25T06:13:19.146Z,17.12
2023-01-25T06:15:58.346Z,17.09
2023-01-25T06:18:34.559Z,17.06
2023-01-25T06:21:08.631Z,17.06
2023-01-25T06:23:44.194Z,17.05
2023-01-25T06:26:19.362Z,17.01
2023-01-25T06:28:53.362Z,17.01
2023-01-25T06:31:27.021Z,17.02
2023-01-25T06:34:04.373Z,17.03
2023-01-25T06:36:37.785Z,17.04
2023-01-25T06:39:11.084Z,17.04
2023-01-25T06:41:44.326Z,17.03
2023-01-25T06:44:17.742Z,17.02
2023-01-25T06:46:51.057Z,17.00
2023-01-25T06:49:24.392Z,17.01
2023-01-25T06:51:57.655Z,17.04
2023-01-25T06:54:31.224Z,17.03
2023-01-25T06:57:05.015Z,17.00
2023-01-25T06:59:38.823Z,16.97
2023-01-25T07:02:17.470Z,16.97
2023-01-25T07:04:49.469Z,16.95
2023-01-25T07:07:22.813Z,16.89
2023-01-25T07:10:00.439Z,16.89
2023-01-25T07:12:34.380Z,16.93
2023-01-25T07:15:10.151Z,16.92
2023-01-25T07:17:43.860Z,16.94
2023-01-25T07:20:18.167Z,16.94
2023-01-25T07:22:54.227Z,16.95
2023-01-25T07:25:27.785Z,16.93
2023-01-25T07:28:01.259Z,16.93
2023-01-25T07:30:34.577Z,16.92
2023-01-25T07:33:08.022Z,16.89
2023-01-25T07:35:41.347Z,16.81
2023-01-25T07:38:14.922Z,16.79
2023-01-25T07:40:54.417Z,16.76
2023-01-25T07:43:27.944Z,16.77
2023-01-25T07:46:07.087Z,16.81
2023-01-25T07:48:41.239Z,16.83
2023-01-25T07:51:23.500Z,16.87
2023-01-25T07:53:59.113Z,16.84
2023-01-25T07:56:35.239Z,16.82
2023-01-25T07:59:09.320Z,16.79
2023-01-25T08:01:43.052Z,16.78
2023-01-25T08:04:16.440Z,16.77
2023-01-25T08:06:49.757Z,16.76
2023-01-25T08:09:23.008Z,16.74
2023-01-25T08:11:56.335Z,16.69
2023-01-25T08:14:30.257Z,16.71
2023-01-25T08:17:03.610Z,16.69
2023-01-25T08:19:36.990Z,16.67
2023-01-25T08:22:13.132Z,16.67
2023-01-25T08:24:46.458Z,16.65
2023-01-25T08:27:19.844Z,16.64
2023-01-25T08:29:53.833Z,16.63
2023-01-25T08:32:27.413Z,16.66
2023-01-25T08:35:01.317Z,16.65
2023-01-25T08:37:34.857Z,16.66
2023-01-25T08:40:10.486Z,16.63
2023-01-25T08:42:44.126Z,16.62
2023-01-25T08:45:17.457Z,16.57
2023-01-25T08:47:50.821Z,16.63
2023-01-25T08:50:25.161Z,16.57
2023-01-25T08:52:58.814Z,16.49
2023-01-25T08:55:32.246Z,16.45
2023-01-25T08:58:05.629Z,16.42
2023-01-25T09:00:39.064Z,16.42
2023-01-25T09:03:13.532Z,16.48
2023-01-25T09:05:47.056Z,16.52
2023-01-25T09:08:20.307Z,16.50
2023-01-25T09:10:53.753Z,16.48
2023-01-25T09:13:27.072Z,16.46
2023-01-25T09:16:05.514Z,16.47
2023-01-25T09:18:41.312Z,16.51
2023-01-25T09:21:17.233Z,16.46
2023-01-25T09:24:08.635Z,16.44
2023-01-25T09:26:50.114Z,16.47
2023-01-25T09:29:29.534Z,16.46
2023-01-25T09:32:02.985Z,16.41
2023-01-25T09:34:37.285Z,16.33
2023-01-25T09:37:10.877Z,16.29
2023-01-25T09:39:44.139Z,16.23
2023-01-25T09:42:55.481Z,16.09
2023-01-25T09:45:35.682Z,16.09
2023-01-25T09:48:21.165Z,16.12
2023-01-25T09:51:15.893Z,16.25
2023-01-25T09:53:53.419Z,16.26
2023-01-25T09:56:35.028Z,16.22
2023-01-25T09:59:17.154Z,16.23
2023-01-25T10:01:55.765Z,16.25
2023-01-25T10:04:35.485Z,16.24
2023-01-25T10:07:21.785Z,16.20
2023-01-25T10:10:02.790Z,16.20
2023-01-25T10:12:40.940Z,16.19
2023-01-25T10:15:24.578Z,16.19
2023-01-25T10:18:05.104Z,16.17
2023-01-25T10:20:45.310Z,16.15
2023-01-25T10:23:50.939Z,16.14
2023-01-25T10:26:29.761Z,16.22
2023-01-25T10:29:11.853Z,16.21
2023-01-25T10:31:53.220Z,16.18
2023-01-25T10:34:30.810Z,16.16
2023-01-25T10:37:14.022Z,16.11
2023-01-25T10:39:58.361Z,16.10
2023-01-25T10:42:38.111Z,16.09
2023-01-25T10:45:17.512Z,16.06
2023-01-25T10:47:57.281Z,16.07
2023-01-25T10:50:57.733Z,16.05
2023-01-25T10:53:37.384Z,16.03
2023-01-25T10:56:25.449Z,16.06
2023-01-25T10:59:18.694Z,16.08
2023-01-25T11:01:52.317Z,16.05
2023-01-25T11:04:38.194Z,16.04
2023-01-25T11:07:30.821Z,16.07
2023-01-25T11:10:04.131Z,16.08
2023-01-25T11:12:37.497Z,16.10
2023-01-25T11:15:28.087Z,16.11
2023-01-25T11:18:19.089Z,16.16
2023-01-25T11:21:06.853Z,16.17
2023-01-25T11:23:40.196Z,16.20
2023-01-25T11:26:20.163Z,16.20
2023-01-25T11:29:07.398Z,16.23
2023-01-25T11:31:42.224Z,16.24
2023-01-25T11:34:17.756Z,16.26
2023-01-25T11:37:06.703Z,16.25
2023-01-25T11:39:55.838Z,16.26
2023-01-25T11:42:43.493Z,16.26
2023-01-25T11:45:50.985Z,16.29
2023-01-25T11:48:47.204Z,16.28
2023-01-25T11:51:28.498Z,16.34
2023-01-25T11:54:22.876Z,16.33
2023-01-25T11:57:01.463Z,16.29
2023-01-25T12:00:01.312Z,16.28
2023-01-25T12:03:18.148Z,16.31
2023-01-25T12:06:03.908Z,16.34
2023-01-25T12:09:01.425Z,16.34
2023-01-25T12:11:48.715Z,16.35
2023-01-25T12:14:33.815Z,16.29
2023-01-25T12:17:21.164Z,16.22
2023-01-25T12:20:23.111Z,16.52
2023-01-25T12:23:27.644Z,16.52
2023-01-25T12:26:14.019Z,16.54
2023-01-25T12:28:51.538Z,16.55
2023-01-25T12:31:33.148Z,16.55
2023-01-25T12:34:14.348Z,16.55
2023-01-25T12:36:51.181Z,16.58
2023-01-25T12:39:30.738Z,16.61
2023-01-25T12:42:11.372Z,16.63
2023-01-25T12:44:50.432Z,16.62
2023-01-25T12:47:34.795Z,16.64
2023-01-25T12:50:18.051Z,16.65
2023-01-25T12:52:55.863Z,16.69
2023-01-25T12:55:30.360Z,16.69
2023-01-25T12:58:18.241Z,16.71
2023-01-25T13:00:56.637Z,16.72
2023-01-25T13:03:44.837Z,16.76
2023-01-25T13:06:23.253Z,16.76
2023-01-25T13:09:05.861Z,16.81
2023-01-25T13:11:41.905Z,16.83
2023-01-25T13:14:36.380Z,16.85
2023-01-25T13:17:26.245Z,16.89
2023-01-25T13:20:00.629Z,16.91
2023-01-25T13:22:59.651Z,16.99
2023-01-25T13:25:33.071Z,16.97
2023-01-25T13:28:45.801Z,17.00
2023-01-25T13:31:52.755Z,17.06
2023-01-25T13:35:00.515Z,16.96
2023-01-25T13:37:35.723Z,16.98
2023-01-25T13:40:32.114Z,16.95
2023-01-25T13:43:18.050Z,17.08
2023-01-25T13:45:55.105Z,17.04
2023-01-25T13:48:32.694Z,17.12
2023-01-25T13:51:11.123Z,16.99
2023-01-25T13:53:55.807Z,17.12
2023-01-25T13:56:36.331Z,17.16
2023-01-25T13:59:24.581Z,17.11
2023-01-25T14:01:58.723Z,17.12
2023-01-25T14:04:32.692Z,17.11
2023-01-25T14:07:09.989Z,17.07
2023-01-25T14:09:45.351Z,17.06
2023-01-25T14:12:35.839Z,17.09
2023-01-25T14:15:28.873Z,17.11
2023-01-25T14:18:20.534Z,17.13
2023-01-25T14:21:10.153Z,17.15
2023-01-25T14:23:43.624Z,17.19
2023-01-25T14:26:25.730Z,17.23
2023-01-25T14:29:01.789Z,17.22
2023-01-25T14:31:38.726Z,17.23
2023-01-25T14:34:21.070Z,17.28
2023-01-25T14:37:13.709Z,17.53
2023-01-25T14:39:48.285Z,17.45
2023-01-25T14:42:21.745Z,17.36
2023-01-25T14:44:55.035Z,17.37
2023-01-25T14:47:33.619Z,17.43
2023-01-25T14:50:36.152Z,17.50
2023-01-25T14:53:21.686Z,17.59
2023-01-25T14:55:55.078Z,17.40
2023-01-25T14:58:31.568Z,17.39
2023-01-25T15:01:06.141Z,17.40
2023-01-25T15:03:45.697Z,17.38
2023-01-25T15:06:19.030Z,17.40
2023-01-25T15:08:52.442Z,17.37
2023-01-25T15:11:45.465Z,17.40
2023-01-25T15:14:22.738Z,17.41
2023-01-25T15:16:56.366Z,17.42
2023-01-25T15:19:34.220Z,17.47
2023-01-25T15:22:10.847Z,17.43
2023-01-25T15:24:50.238Z,17.41
2023-01-25T15:27:26.903Z,17.43
2023-01-25T15:30:00.256Z,17.41
2023-01-25T15:32:33.550Z,17.43
2023-01-25T15:35:13.021Z,17.42
2023-01-25T15:37:48.968Z,17.44
2023-01-25T15:40:23.015Z,17.46
2023-01-25T15:42:56.700Z,17.40
2023-01-25T15:45:30.214Z,17.42
2023-01-25T15:48:04.187Z,17.43
2023-01-25T15:50:37.620Z,17.39
2023-01-25T15:53:15.276Z,17.43
2023-01-25T15:55:52.013Z,17.45
2023-01-25T15:58:30.743Z,17.47
2023-01-25T16:01:02.549Z,17.42
2023-01-25T16:03:35.882Z,17.44
2023-01-25T16:06:33.093Z,17.39
2023-01-25T16:09:16.754Z,17.55
2023-01-25T16:11:52.007Z,17.60
2023-01-25T16:14:29.156Z,17.48
2023-01-25T16:17:05.580Z,17.49
2023-01-25T16:19:39.025Z,17.57
2023-01-25T16:22:12.266Z,17.68
2023-01-25T16:24:46.409Z,17.75
2023-01-25T16:27:26.615Z,17.81
2023-01-25T16:29:59.837Z,17.86
2023-01-25T16:32:33.111Z,17.93
2023-01-25T16:35:07.153Z,17.91
2023-01-25T16:37:40.458Z,17.93
2023-01-25T16:40:23.821Z,18.06
2023-01-25T16:42:57.197Z,18.06
2023-01-25T16:45:30.511Z,18.11
2023-01-25T16:48:03.792Z,18.33
2023-01-25T16:50:37.028Z,18.53
2023-01-25T16:53:10.288Z,18.54
2023-01-25T16:55:43.937Z,18.55
2023-01-25T16:58:17.179Z,18.45
2023-01-25T17:00:50.385Z,18.30
2023-01-25T17:03:23.623Z,18.30
2023-01-25T17:05:56.908Z,18.28
2023-01-25T17:08:30.238Z,18.23
2023-01-25T17:11:08.844Z,18.19
2023-01-25T17:13:40.602Z,18.16
2023-01-25T17:16:13.827Z,18.11
2023-01-25T17:18:47.834Z,18.13
2023-01-25T17:21:21.454Z,18.12
2023-01-25T17:23:56.817Z,18.07
2023-01-25T17:26:31.651Z,18.08
2023-01-25T17:29:05.371Z,18.19
2023-01-25T17:31:39.646Z,18.25
2023-01-25T17:34:19.109Z,18.07
2023-01-25T17:36:53.772Z,18.04
2023-01-25T17:39:27.119Z,18.07
2023-01-25T17:42:00.424Z,18.00
2023-01-25T17:44:33.661Z,18.08
2023-01-25T17:47:07.181Z,18.08
2023-01-25T17:49:40.475Z,18.04
2023-01-25T17:52:13.879Z,18.03
2023-01-25T17:54:47.200Z,18.01
2023-01-25T17:57:24.003Z,18.01
2023-01-25T17:59:57.306Z,18.05
2023-01-25T18:02:30.874Z,18.01
2023-01-25T18:05:04.201Z,17.99
2023-01-25T18:07:37.857Z,18.04
2023-01-25T18:10:13.921Z,18.10
2023-01-25T18:13:03.706Z,18.04
2023-01-25T18:15:37.781Z,18.03
2023-01-25T18:18:11.021Z,18.02
2023-01-25T18:20:44.310Z,18.03
2023-01-25T18:23:17.552Z,18.01
2023-01-25T18:25:50.812Z,18.00
2023-01-25T18:28:24.027Z,18.02
2023-01-25T18:31:02.340Z,17.99
2023-01-25T18:33:35.625Z,18.04
2023-01-25T18:36:11.791Z,18.01
2023-01-25T18:38:45.355Z,18.20
2023-01-25T18:41:18.596Z,18.09
2023-01-25T18:43:53.971Z,18.01
2023-01-25T18:46:27.378Z,18.02
2023-01-25T18:49:00.625Z,18.01
2023-01-25T18:51:38.953Z,18.10
2023-01-25T18:54:17.590Z,18.10
2023-01-25T18:56:50.830Z,18.10
2023-01-25T18:59:24.076Z,18.09
2023-01-25T19:01:57.454Z,18.04
2023-01-25T19:04:30.769Z,18.02
2023-01-25T19:07:04.782Z,18.07
2023-01-25T19:09:38.406Z,18.07
2023-01-25T19:12:12.407Z,18.09
2023-01-25T19:14:45.674Z,18.09
2023-01-25T19:17:18.920Z,18.08
2023-01-25T19:19:52.175Z,18.16
2023-01-25T19:22:25.837Z,18.14
2023-01-25T19:24:59.041Z,18.12
2023-01-25T19:27:32.298Z,18.09
2023-01-25T19:30:06.520Z,18.10
2023-01-25T19:32:39.887Z,18.22
2023-01-25T19:35:13.566Z,18.38
2023-01-25T19:37:47.342Z,18.33
2023-01-25T19:40:21.389Z,18.38
2023-01-25T19:42:54.679Z,18.33
2023-01-25T19:45:27.995Z,18.26
2023-01-25T19:48:02.705Z,18.22
2023-01-25T19:50:36.010Z,18.15
2023-01-25T19:53:09.280Z,18.16
2023-01-25T19:55:43.217Z,18.18
2023-01-25T19:58:16.798Z,18.16
2023-01-25T20:00:50.074Z,18.30
2023-01-25T20:03:23.583Z,18.20
2023-01-25T20:06:03.311Z,18.18
2023-01-25T20:08:38.672Z,18.31
2023-01-25T20:11:15.782Z,18.24
2023-01-25T20:13:50.345Z,18.33
2023-01-25T20:16:23.875Z,18.34
2023-01-25T20:18:58.187Z,18.27
2023-01-25T20:21:33.546Z,18.22
2023-01-25T20:24:10.827Z,18.21
2023-01-25T20:26:44.995Z,18.17
2023-01-25T20:29:18.248Z,18.24
2023-01-25T20:31:51.602Z,18.26
2023-01-25T20:34:25.827Z,18.30
2023-01-25T20:37:00.343Z,18.43
2023-01-25T20:39:33.754Z,18.35
2023-01-25T20:42:07.304Z,18.23
2023-01-25T20:44:40.502Z,18.20
2023-01-25T20:47:13.775Z,18.21
2023-01-25T20:49:47.049Z,18.15
2023-01-25T20:52:20.259Z,18.08
2023-01-25T20:54:53.906Z,18.08
2023-01-25T20:57:27.180Z,18.06
2023-01-25T21:00:00.451Z,18.07
2023-01-25T21:02:33.960Z,18.06
2023-01-25T21:05:08.944Z,18.08
2023-01-25T21:07:42.554Z,18.06
2023-01-25T21:10:16.740Z,18.05
2023-01-25T21:12:50.152Z,18.05
2023-01-25T21:15:25.568Z,18.07
2023-01-25T21:17:59.159Z,18.07
2023-01-25T21:20:32.496Z,18.13
2023-01-25T21:23:05.854Z,18.20
2023-01-25T21:25:39.108Z,18.21
2023-01-25T21:28:12.408Z,18.20
2023-01-25T21:30:45.718Z,18.08
2023-01-25T21:33:19.069Z,18.08
2023-01-25T21:35:54.813Z,18.06
2023-01-25T21:38:28.105Z,18.04
2023-01-25T21:41:06.629Z,18.02
2023-01-25T21:43:58.030Z,17.99
2023-01-25T21:46:32.374Z,17.95
2023-01-25T21:49:26.293Z,17.98
2023-01-25T21:52:02.050Z,17.98
2023-01-25T21:54:38.496Z,17.96
2023-01-25T21:57:12.533Z,17.95
2023-01-25T21:59:45.938Z,17.97
2023-01-25T22:02:19.205Z,17.94
2023-01-25T22:04:52.548Z,17.92
2023-01-25T22:07:25.910Z,17.94
2023-01-25T22:09:59.222Z,17.92
2023-01-25T22:12:32.634Z,17.92
2023-01-25T22:15:07.587Z,17.95
2023-01-25T22:17:45.833Z,17.95
2023-01-25T22:20:19.992Z,17.92
2023-01-25T22:22:53.225Z,17.94
2023-01-25T22:25:26.471Z,17.93
2023-01-25T22:28:13.295Z,17.94
2023-01-25T22:30:47.658Z,17.90
2023-01-25T22:33:21.543Z,17.94
2023-01-25T22:35:54.814Z,17.94
2023-01-25T22:38:28.033Z,17.90
2023-01-25T22:41:06.119Z,17.91
2023-01-25T22:43:40.738Z,17.90
2023-01-25T22:46:18.592Z,17.99
2023-01-25T22:48:52.370Z,17.92
2023-01-25T22:51:28.103Z,17.88
2023-01-25T22:54:02.179Z,17.90
2023-01-25T22:56:36.421Z,17.91
2023-01-25T22:59:11.201Z,17.90
2023-01-25T23:01:44.494Z,17.92
2023-01-25T23:04:17.767Z,17.88
2023-01-25T23:07:02.781Z,17.86
2023-01-25T23:09:34.653Z,17.89
2023-01-25T23:12:09.109Z,17.89
2023-01-25T23:14:54.679Z,17.94
2023-01-25T23:17:45.440Z,17.93
2023-01-25T23:20:19.091Z,17.95
2023-01-25T23:22:53.209Z,17.91
2023-01-25T23:25:27.419Z,17.86
2023-01-25T23:28:00.644Z,17.93
2023-01-25T23:30:33.925Z,17.94
2023-01-25T23:33:07.169Z,17.95
2023-01-25T23:35:40.349Z,17.96
2023-01-25T23:38:15.122Z,17.92
2023-01-25T23:40:48.748Z,17.95
2023-01-25T23:43:22.082Z,17.95
2023-01-25T23:45:55.435Z,17.97
2023-01-25T23:48:29.037Z,17.91
2023-01-25T23:51:02.816Z,17.93
2023-01-25T23:53:36.295Z,17.92
2023-01-25T23:56:14.238Z,17.94
2023-01-25T23:58:48.887Z,17.95
